Time;durP1;ratioP1;P1;durP2;ratioP2;P2;SDS_P1;SDS_P2;PMS_P1;PMS_P2;Temp;Humidity;BMP_temperature;BMP_pressure;BME280_temperature;BME280_humidity;BME280_pressure;Samples;Min_cycle;Max_cycle;Signal;HPM_P1;HPM_P2
2023/08/18 00:00:00;;;;;;;14.65;9.65;;;;;;;;;;4981609;28;20117;-78
2023/08/18 00:02:26;;;;;;;19.30;9.93;;;;;;;;;;4984258;28;20034;-79
2023/08/18 00:04:52;;;;;;;17.63;10.73;;;;;;;;;;4962346;28;20038;-78
2023/08/18 00:07:18;;;;;;;12.48;10.45;;;;;;;;;;4980362;28;20043;-78
2023/08/18 00:09:49;;;;;;;11.45;9.82;;;;;;;;;;4961149;28;20485;-78
2023/08/18 00:12:15;;;;;;;16.42;10.70;;;;;;;;;;4980746;28;20038;-78
2023/08/18 00:14:41;;;;;;;12.77;10.35;;;;;;;;;;4979052;28;20038;-80
2023/08/18 00:17:07;;;;;;;12.48;9.85;;;;;;;;;;4979116;28;20039;-78
2023/08/18 00:19:33;;;;;;;13.52;9.35;;;;;;;;;;4963072;28;20042;-78
2023/08/18 00:21:59;;;;;;;20.65;10.00;;;;;;;;;;4960679;28;20089;-78
2023/08/18 00:24:25;;;;;;;12.20;9.25;;;;;;;;;;4980266;28;20395;-76
2023/08/18 00:26:51;;;;;;;15.32;10.95;;;;;;;;;;4978823;28;21677;-79
2023/08/18 00:29:19;;;;;;;14.23;10.30;;;;;;;;;;4977488;28;20027;-78
2023/08/18 00:31:45;;;;;;;12.13;9.65;;;;;;;;;;4963766;28;20149;-80
2023/08/18 00:34:14;;;;;;;14.10;9.77;;;;;;;;;;4982175;28;20053;-77
2023/08/18 00:36:40;;;;;;;13.90;9.93;;;;;;;;;;4978274;28;20053;-77
2023/08/18 00:39:08;;;;;;;14.98;10.27;;;;;;;;;;4978872;28;20101;-77
2023/08/18 00:41:34;;;;;;;16.48;10.00;;;;;;;;;;4978642;28;20062;-78
2023/08/18 00:44:00;;;;;;;16.42;10.52;;;;;;;;;;4978938;28;20180;-78
2023/08/18 00:46:27;;;;;;;15.65;10.77;;;;;;;;;;4981546;28;20125;-77
2023/08/18 00:48:53;;;;;;;14.13;10.23;;;;;;;;;;4962106;28;20467;-80
2023/08/18 00:51:20;;;;;;;13.55;10.70;;;;;;;;;;4977284;28;20696;-78
2023/08/18 00:53:47;;;;;;;14.20;11.48;;;;;;;;;;4979366;28;20477;-77
2023/08/18 00:56:14;;;;;;;22.42;12.05;;;;;;;;;;4962827;28;20036;-79
2023/08/18 00:58:40;;;;;;;17.23;11.43;;;;;;;;;;4979430;28;20034;-79
2023/08/18 01:01:06;;;;;;;16.13;11.88;;;;;;;;;;4982246;28;20475;-77
2023/08/18 01:03:32;;;;;;;15.00;11.38;;;;;;;;;;4976750;28;20042;-78
2023/08/18 01:05:59;;;;;;;15.15;9.75;;;;;;;;;;4977501;28;20030;-79
2023/08/18 01:08:25;;;;;;;13.65;11.13;;;;;;;;;;4965728;28;20042;-79
2023/08/18 01:11:10;;;;;;;15.90;11.95;;;;;;;;;;4961737;28;20092;-77
2023/08/18 01:13:44;;;;;;;17.60;11.85;;;;;;;;;;4976980;28;20105;-75
2023/08/18 01:16:16;;;;;;;19.13;13.73;;;;;;;;;;4981567;28;20081;-76
2023/08/18 01:18:42;;;;;;;19.10;13.65;;;;;;;;;;4978568;28;20046;-77
2023/08/18 01:21:14;;;;;;;19.92;14.63;;;;;;;;;;4978336;28;20042;-78
2023/08/18 01:23:41;;;;;;;16.95;12.85;;;;;;;;;;4976853;28;20439;-79
2023/08/18 01:26:07;;;;;;;16.73;12.88;;;;;;;;;;4979608;28;20038;-80
2023/08/18 01:28:34;;;;;;;17.55;12.43;;;;;;;;;;4977246;28;20710;-80
2023/08/18 01:31:01;;;;;;;14.43;11.93;;;;;;;;;;4976608;28;20041;-77
2023/08/18 01:33:32;;;;;;;17.92;11.93;;;;;;;;;;4978874;28;20022;-81
2023/08/18 01:36:01;;;;;;;15.95;10.85;;;;;;;;;;4975307;28;20038;-78
2023/08/18 01:38:28;;;;;;;20.70;12.18;;;;;;;;;;4977546;28;20128;-78
2023/08/18 01:40:56;;;;;;;17.45;11.68;;;;;;;;;;4979410;28;20030;-79
2023/08/18 01:43:26;;;;;;;21.73;14.82;;;;;;;;;;4978612;28;20695;-78
2023/08/18 01:45:52;;;;;;;21.05;14.82;;;;;;;;;;4976014;28;20045;-80
2023/08/18 01:48:20;;;;;;;24.13;16.80;;;;;;;;;;4979045;28;20035;-79
2023/08/18 01:50:46;;;;;;;28.33;18.95;;;;;;;;;;4981198;28;20034;-79
2023/08/18 01:53:15;;;;;;;24.77;16.08;;;;;;;;;;4960755;28;20586;-79
2023/08/18 01:55:43;;;;;;;23.13;15.30;;;;;;;;;;4978796;28;20064;-77
2023/08/18 01:58:09;;;;;;;21.23;14.90;;;;;;;;;;4975863;28;20534;-78
2023/08/18 02:00:35;;;;;;;23.90;15.68;;;;;;;;;;4978867;28;20049;-78
2023/08/18 02:03:01;;;;;;;21.67;13.82;;;;;;;;;;4978524;28;20068;-79
2023/08/18 02:05:27;;;;;;;22.63;16.02;;;;;;;;;;4982988;28;20473;-79
2023/08/18 02:07:53;;;;;;;21.02;14.60;;;;;;;;;;4976050;28;20074;-80
2023/08/18 02:10:21;;;;;;;16.60;12.32;;;;;;;;;;4975848;28;20109;-80
2023/08/18 02:12:49;;;;;;;21.65;13.65;;;;;;;;;;4981050;28;20038;-76
2023/08/18 02:15:18;;;;;;;16.42;12.32;;;;;;;;;;4980481;28;20027;-75
2023/08/18 02:17:44;;;;;;;17.73;12.30;;;;;;;;;;4977289;28;21691;-79
2023/08/18 02:20:10;;;;;;;19.17;13.25;;;;;;;;;;4974680;28;20096;-77
2023/08/18 02:22:36;;;;;;;17.95;12.95;;;;;;;;;;4980588;28;20066;-77
2023/08/18 02:25:02;;;;;;;18.60;13.77;;;;;;;;;;4977607;28;20089;-79
2023/08/18 02:27:30;;;;;;;22.27;14.15;;;;;;;;;;4975813;28;20418;-77
2023/08/18 02:29:58;;;;;;;20.27;13.65;;;;;;;;;;4976084;28;20038;-78
2023/08/18 02:32:24;;;;;;;28.73;14.85;;;;;;;;;;4975761;28;20392;-79
2023/08/18 02:34:50;;;;;;;21.30;14.40;;;;;;;;;;4982226;28;20072;-79
2023/08/18 02:37:16;;;;;;;20.38;15.27;;;;;;;;;;4979881;28;20122;-76
2023/08/18 02:39:45;;;;;;;24.48;14.68;;;;;;;;;;4982492;28;20073;-77
2023/08/18 02:42:11;;;;;;;20.55;15.05;;;;;;;;;;5032886;22;20064;-78
2023/08/18 02:44:37;;;;;;;21.77;15.20;;;;;;;;;;5026128;28;20045;-79
2023/08/18 02:47:03;;;;;;;37.63;17.40;;;;;;;;;;5041848;28;20037;-80
2023/08/18 02:49:29;;;;;;;21.73;15.55;;;;;;;;;;5026559;28;20045;-78
2023/08/18 02:51:55;;;;;;;24.23;16.40;;;;;;;;;;5025428;28;20049;-77
2023/08/18 02:54:21;;;;;;;22.00;16.48;;;;;;;;;;5024715;28;20033;-78
2023/08/18 02:56:51;;;;;;;23.67;17.85;;;;;;;;;;5042345;28;20037;-76
2023/08/18 02:59:17;;;;;;;28.20;17.75;;;;;;;;;;5026030;28;20029;-75
2023/08/18 03:01:46;;;;;;;26.63;19.10;;;;;;;;;;5025531;28;20996;-78
2023/08/18 03:04:14;;;;;;;31.88;19.50;;;;;;;;;;5025587;28;20025;-77
2023/08/18 03:06:40;;;;;;;30.35;19.33;;;;;;;;;;5026237;28;20365;-77
2023/08/18 03:09:08;;;;;;;35.42;20.10;;;;;;;;;;5025993;28;20034;-74
2023/08/18 03:11:34;;;;;;;31.35;19.58;;;;;;;;;;5025093;28;20037;-77
2023/08/18 03:14:00;;;;;;;33.13;19.50;;;;;;;;;;5025790;28;20358;-77
2023/08/18 03:16:26;;;;;;;33.10;19.42;;;;;;;;;;5032582;28;20033;-78
2023/08/18 03:18:52;;;;;;;33.95;20.15;;;;;;;;;;5025427;28;20034;-80
2023/08/18 03:21:20;;;;;;;28.00;19.83;;;;;;;;;;5026095;28;20441;-77
2023/08/18 03:23:46;;;;;;;32.13;18.90;;;;;;;;;;5025978;28;20029;-79
2023/08/18 03:26:12;;;;;;;26.45;19.10;;;;;;;;;;5016607;28;20042;-77
2023/08/18 03:28:39;;;;;;;36.53;22.48;;;;;;;;;;5024513;28;20037;-79
2023/08/18 03:31:06;;;;;;;31.30;20.92;;;;;;;;;;5025990;28;20029;-79
2023/08/18 03:33:32;;;;;;;38.22;22.60;;;;;;;;;;5026377;28;20029;-79
2023/08/18 03:36:00;;;;;;;39.22;22.90;;;;;;;;;;5034150;28;20052;-75
2023/08/18 03:38:26;;;;;;;39.97;25.00;;;;;;;;;;5025838;28;20092;-77
2023/08/18 03:41:08;;;;;;;38.45;24.30;;;;;;;;;;5024567;28;20030;-76
2023/08/18 03:43:35;;;;;;;35.23;23.57;;;;;;;;;;5025213;28;20041;-76
2023/08/18 03:46:03;;;;;;;34.00;22.13;;;;;;;;;;5025107;28;20049;-76
2023/08/18 03:48:29;;;;;;;36.80;23.85;;;;;;;;;;5032762;28;20048;-77
2023/08/18 03:50:55;;;;;;;34.50;22.50;;;;;;;;;;5025583;28;20033;-76
2023/08/18 03:53:22;;;;;;;33.85;21.27;;;;;;;;;;5033350;28;20029;-78
2023/08/18 03:55:52;;;;;;;34.97;21.90;;;;;;;;;;5017393;28;20049;-79
2023/08/18 03:58:18;;;;;;;34.30;19.65;;;;;;;;;;5025439;28;20406;-78
2023/08/18 04:00:44;;;;;;;36.95;23.10;;;;;;;;;;5024350;28;20048;-77
2023/08/18 04:03:10;;;;;;;33.70;19.65;;;;;;;;;;5040351;28;20069;-78
2023/08/18 04:05:36;;;;;;;32.75;20.88;;;;;;;;;;5022949;28;20041;-79
2023/08/18 04:08:03;;;;;;;38.40;21.23;;;;;;;;;;5023394;28;20029;-77
2023/08/18 04:10:29;;;;;;;30.58;20.23;;;;;;;;;;5025769;28;20034;-79
2023/08/18 04:12:55;;;;;;;32.72;20.88;;;;;;;;;;5017068;28;20044;-76
2023/08/18 04:15:21;;;;;;;30.40;20.80;;;;;;;;;;5024699;28;20025;-77
2023/08/18 04:17:47;;;;;;;35.70;21.98;;;;;;;;;;5025185;28;20045;-77
2023/08/18 04:20:13;;;;;;;32.03;21.98;;;;;;;;;;5023369;28;20862;-77
2023/08/18 04:22:39;;;;;;;38.35;22.48;;;;;;;;;;5024259;28;20079;-76
2023/08/18 04:25:05;;;;;;;32.00;22.48;;;;;;;;;;5024605;28;20033;-76
2023/08/18 04:27:34;;;;;;;34.40;22.30;;;;;;;;;;5032571;28;20155;-77
2023/08/18 04:30:03;;;;;;;36.92;22.48;;;;;;;;;;5016662;28;20132;-76
2023/08/18 04:32:29;;;;;;;32.03;20.23;;;;;;;;;;5024218;28;20033;-79
2023/08/18 04:34:59;;;;;;;34.25;21.52;;;;;;;;;;5040428;28;20036;-76
2023/08/18 04:37:27;;;;;;;30.58;21.77;;;;;;;;;;5024636;28;20057;-74
2023/08/18 04:39:53;;;;;;;34.95;24.05;;;;;;;;;;5032747;28;20402;-78
2023/08/18 04:42:19;;;;;;;36.15;21.52;;;;;;;;;;5023676;28;20033;-77
2023/08/18 04:44:45;;;;;;;34.28;22.70;;;;;;;;;;5023811;28;20041;-77
2023/08/18 04:47:14;;;;;;;34.33;22.00;;;;;;;;;;5039977;28;20029;-78
2023/08/18 04:49:40;;;;;;;33.85;22.08;;;;;;;;;;5024012;28;20544;-78
2023/08/18 04:52:07;;;;;;;36.55;23.45;;;;;;;;;;5028452;28;20040;-78
2023/08/18 04:54:36;;;;;;;40.25;24.00;;;;;;;;;;5024387;28;20033;-76
2023/08/18 04:57:05;;;;;;;39.10;22.50;;;;;;;;;;5025062;28;20037;-75
2023/08/18 04:59:31;;;;;;;37.13;23.02;;;;;;;;;;5044914;28;20037;-76
2023/08/18 05:01:56;;;;;;;41.70;24.90;;;;;;;;;;5039126;28;20775;-79
2023/08/18 05:04:22;;;;;;;53.13;26.95;;;;;;;;;;5023458;28;20032;-74
2023/08/18 05:06:48;;;;;;;50.38;26.95;;;;;;;;;;5031665;28;21650;-78
2023/08/18 05:09:14;;;;;;;55.72;26.60;;;;;;;;;;5031637;28;20036;-78
2023/08/18 05:11:40;;;;;;;42.60;26.10;;;;;;;;;;5024328;28;20030;-77
2023/08/18 05:14:09;;;;;;;40.35;25.45;;;;;;;;;;5026494;28;20160;-77
2023/08/18 05:16:37;;;;;;;42.22;26.08;;;;;;;;;;5022929;28;20532;-78
2023/08/18 05:19:03;;;;;;;39.33;24.98;;;;;;;;;;5026923;28;20095;-79
2023/08/18 05:21:29;;;;;;;39.38;25.70;;;;;;;;;;5046638;28;20068;-78
2023/08/18 05:23:55;;;;;;;46.85;28.08;;;;;;;;;;5022687;28;20037;-80
2023/08/18 05:26:21;;;;;;;43.33;25.17;;;;;;;;;;5042505;28;20053;-77
2023/08/18 05:28:47;;;;;;;47.35;26.73;;;;;;;;;;5038967;28;20057;-78
2023/08/18 05:31:13;;;;;;;45.38;27.17;;;;;;;;;;5023272;28;20476;-79
2023/08/18 05:33:39;;;;;;;44.95;28.40;;;;;;;;;;5022784;28;20132;-75
2023/08/18 05:36:05;;;;;;;45.97;26.15;;;;;;;;;;5023492;28;20462;-77
2023/08/18 05:38:32;;;;;;;48.10;27.75;;;;;;;;;;5027662;28;20040;-79
2023/08/18 05:41:07;;;;;;;51.75;27.98;;;;;;;;;;5056082;28;20029;-75
2023/08/18 05:43:37;;;;;;;54.28;29.85;;;;;;;;;;5045098;28;20047;-76
2023/08/18 05:46:03;;;;;;;50.13;28.65;;;;;;;;;;5040085;28;20029;-76
2023/08/18 05:48:30;;;;;;;60.50;30.98;;;;;;;;;;5030546;28;20079;-76
2023/08/18 05:50:56;;;;;;;50.10;28.38;;;;;;;;;;5023532;28;20037;-78
2023/08/18 05:53:22;;;;;;;61.50;29.45;;;;;;;;;;5025756;28;20026;-79
2023/08/18 05:55:50;;;;;;;55.83;29.65;;;;;;;;;;5023390;28;20055;-78
2023/08/18 05:58:16;;;;;;;53.15;30.27;;;;;;;;;;5024418;28;20045;-79
2023/08/18 06:00:42;;;;;;;57.47;29.38;;;;;;;;;;5038803;28;20099;-76
2023/08/18 06:03:08;;;;;;;57.22;29.58;;;;;;;;;;5026100;28;20030;-79
2023/08/18 06:05:35;;;;;;;43.53;26.00;;;;;;;;;;5041791;28;20033;-77
2023/08/18 06:08:01;;;;;;;48.08;28.70;;;;;;;;;;5043466;28;20052;-76
2023/08/18 06:10:27;;;;;;;47.15;28.58;;;;;;;;;;5040507;28;20030;-79
2023/08/18 06:12:55;;;;;;;40.38;25.52;;;;;;;;;;5023497;28;20469;-74
2023/08/18 06:15:21;;;;;;;48.00;26.10;;;;;;;;;;5022501;28;20074;-79
2023/08/18 06:17:49;;;;;;;41.08;25.00;;;;;;;;;;5022691;28;20037;-80
2023/08/18 06:20:15;;;;;;;49.70;26.48;;;;;;;;;;5022635;28;20840;-79
2023/08/18 06:22:41;;;;;;;44.35;27.42;;;;;;;;;;5022719;28;20040;-77
2023/08/18 06:25:08;;;;;;;43.05;27.10;;;;;;;;;;5024682;28;20072;-76
2023/08/18 06:27:36;;;;;;;36.40;23.33;;;;;;;;;;5026177;28;20126;-79
2023/08/18 06:30:02;;;;;;;47.20;25.13;;;;;;;;;;5026818;28;20030;-75
2023/08/18 06:32:28;;;;;;;38.63;24.52;;;;;;;;;;5017424;28;20096;-79
2023/08/18 06:34:54;;;;;;;34.92;22.90;;;;;;;;;;5025291;28;20103;-79
2023/08/18 06:37:20;;;;;;;34.75;23.00;;;;;;;;;;5021932;28;20057;-78
2023/08/18 06:39:46;;;;;;;41.88;26.17;;;;;;;;;;5022403;28;20041;-79
2023/08/18 06:42:13;;;;;;;43.63;26.33;;;;;;;;;;5022763;28;20039;-81
2023/08/18 06:44:39;;;;;;;45.90;25.13;;;;;;;;;;5014136;28;20048;-75
2023/08/18 06:47:05;;;;;;;33.67;21.10;;;;;;;;;;5023165;28;20037;-76
2023/08/18 06:49:31;;;;;;;34.22;22.92;;;;;;;;;;5023225;28;20025;-81
2023/08/18 06:51:57;;;;;;;33.60;20.98;;;;;;;;;;5038422;28;20736;-78
2023/08/18 06:54:25;;;;;;;29.30;20.00;;;;;;;;;;5024251;28;20041;-80
2023/08/18 06:56:51;;;;;;;37.10;21.98;;;;;;;;;;5024416;28;20426;-75
2023/08/18 06:59:17;;;;;;;33.47;20.17;;;;;;;;;;5024385;28;20049;-79
2023/08/18 07:01:43;;;;;;;39.05;22.55;;;;;;;;;;5041010;28;20055;-81
2023/08/18 07:04:12;;;;;;;33.13;22.23;;;;;;;;;;5024630;28;20083;-76
2023/08/18 07:06:39;;;;;;;30.55;21.30;;;;;;;;;;5025953;28;20045;-79
2023/08/18 07:09:05;;;;;;;31.58;19.45;;;;;;;;;;5025617;28;20033;-80
2023/08/18 07:11:33;;;;;;;30.10;19.80;;;;;;;;;;5024962;28;20494;-77
2023/08/18 07:14:03;;;;;;;29.80;20.83;;;;;;;;;;5033575;28;20139;-79
2023/08/18 07:16:29;;;;;;;31.17;21.38;;;;;;;;;;5039181;28;20036;-78
2023/08/18 07:18:55;;;;;;;28.17;19.13;;;;;;;;;;5014466;28;20434;-75
2023/08/18 07:21:21;;;;;;;30.00;19.65;;;;;;;;;;5025619;28;20064;-78
2023/08/18 07:23:47;;;;;;;30.08;21.92;;;;;;;;;;5024291;28;20095;-78
2023/08/18 07:26:16;;;;;;;29.15;19.35;;;;;;;;;;5025585;28;20037;-77
2023/08/18 07:28:42;;;;;;;33.45;20.50;;;;;;;;;;5025614;28;20757;-80
2023/08/18 07:31:08;;;;;;;28.48;18.52;;;;;;;;;;5025697;28;20112;-76
2023/08/18 07:33:36;;;;;;;24.90;18.35;;;;;;;;;;5024887;28;20458;-77
2023/08/18 07:36:03;;;;;;;26.33;18.45;;;;;;;;;;5025122;28;20493;-78
2023/08/18 07:38:30;;;;;;;26.77;19.67;;;;;;;;;;5040936;28;20453;-76
2023/08/18 07:40:56;;;;;;;29.73;19.55;;;;;;;;;;5025107;28;20474;-77
2023/08/18 07:43:22;;;;;;;29.17;19.90;;;;;;;;;;5025739;28;20047;-75
2023/08/18 07:45:48;;;;;;;25.05;17.20;;;;;;;;;;5024902;28;20033;-79
2023/08/18 07:48:14;;;;;;;32.20;19.13;;;;;;;;;;5040779;28;20040;-77
2023/08/18 07:50:43;;;;;;;28.35;18.45;;;;;;;;;;5018590;28;20141;-74
2023/08/18 07:53:09;;;;;;;26.75;19.83;;;;;;;;;;5015236;28;20064;-79
2023/08/18 07:55:36;;;;;;;27.15;18.42;;;;;;;;;;5025141;28;20454;-76
2023/08/18 07:58:03;;;;;;;30.35;18.23;;;;;;;;;;5023999;28;20040;-77
2023/08/18 08:00:30;;;;;;;23.63;16.95;;;;;;;;;;5033226;28;20033;-78
2023/08/18 08:02:57;;;;;;;26.83;15.30;;;;;;;;;;5023534;28;20029;-75
2023/08/18 08:05:23;;;;;;;19.83;12.10;;;;;;;;;;5032476;28;20045;-79
2023/08/18 08:07:49;;;;;;;18.75;12.15;;;;;;;;;;5039887;28;20462;-81
2023/08/18 08:10:15;;;;;;;17.77;9.60;;;;;;;;;;5024515;28;20450;-76
2023/08/18 08:12:42;;;;;;;13.32;8.73;;;;;;;;;;5024876;28;20084;-77
2023/08/18 08:15:11;;;;;;;10.63;8.70;;;;;;;;;;5040016;28;20034;-78
2023/08/18 08:17:37;;;;;;;15.07;8.63;;;;;;;;;;5031814;28;20026;-78
2023/08/18 08:20:16;;;;;;;9.35;7.65;;;;;;;;;;5024443;28;20064;-77
2023/08/18 08:22:46;;;;;;;12.70;8.38;;;;;;;;;;5040626;28;20033;-77
2023/08/18 08:25:14;;;;;;;12.88;7.35;;;;;;;;;;5033617;28;20397;-77
2023/08/18 08:27:43;;;;;;;14.15;8.13;;;;;;;;;;5031717;28;20099;-77
2023/08/18 08:30:11;;;;;;;13.90;8.25;;;;;;;;;;5040280;28;20084;-77
2023/08/18 08:32:37;;;;;;;13.77;9.10;;;;;;;;;;5023427;28;20108;-76
2023/08/18 08:35:03;;;;;;;14.63;8.38;;;;;;;;;;5040099;28;20726;-78
2023/08/18 08:37:29;;;;;;;15.82;8.82;;;;;;;;;;5022647;28;20454;-79
2023/08/18 08:39:55;;;;;;;18.80;9.32;;;;;;;;;;5039717;28;20045;-77
2023/08/18 08:42:22;;;;;;;14.25;9.13;;;;;;;;;;5039067;28;21682;-79
2023/08/18 08:44:48;;;;;;;9.98;7.80;;;;;;;;;;5032664;28;20030;-78
2023/08/18 08:47:20;;;;;;;11.80;7.93;;;;;;;;;;5023448;28;20025;-77
2023/08/18 08:49:46;;;;;;;9.18;8.15;;;;;;;;;;5032080;28;20030;-78
2023/08/18 08:52:16;;;;;;;10.25;7.25;;;;;;;;;;5029818;28;20034;-79
2023/08/18 08:54:50;;;;;;;7.57;6.75;;;;;;;;;;5022597;28;20112;-78
2023/08/18 08:57:18;;;;;;;10.35;7.97;;;;;;;;;;5039517;28;20175;-76
2023/08/18 08:59:44;;;;;;;8.65;7.18;;;;;;;;;;5047287;28;20105;-77
2023/08/18 09:02:10;;;;;;;8.15;6.60;;;;;;;;;;5023675;28;20168;-80
2023/08/18 09:04:38;;;;;;;12.55;8.32;;;;;;;;;;5032073;28;20863;-76
2023/08/18 09:07:04;;;;;;;16.73;9.20;;;;;;;;;;5027528;28;20033;-78
2023/08/18 09:09:32;;;;;;;11.85;10.30;;;;;;;;;;5030570;28;20030;-77
2023/08/18 09:12:06;;;;;;;15.40;9.70;;;;;;;;;;5031296;28;20029;-78
2023/08/18 09:14:34;;;;;;;12.18;10.45;;;;;;;;;;5038894;28;20128;-79
2023/08/18 09:17:00;;;;;;;17.10;12.13;;;;;;;;;;5024457;28;20086;-75
2023/08/18 09:19:29;;;;;;;15.18;10.45;;;;;;;;;;5032906;28;20038;-77
2023/08/18 09:21:59;;;;;;;15.95;10.70;;;;;;;;;;5023186;28;20144;-78
2023/08/18 09:24:25;;;;;;;15.20;10.30;;;;;;;;;;5022885;28;20112;-77
2023/08/18 09:26:51;;;;;;;16.63;12.45;;;;;;;;;;5030906;28;20029;-75
2023/08/18 09:29:17;;;;;;;15.95;10.90;;;;;;;;;;5023321;28;20045;-80
2023/08/18 09:31:46;;;;;;;15.10;10.77;;;;;;;;;;5038493;28;20028;-77
2023/08/18 09:34:24;;;;;;;16.70;12.52;;;;;;;;;;5023608;28;20033;-77
2023/08/18 09:36:55;;;;;;;19.05;13.77;;;;;;;;;;5023802;28;20025;-78
2023/08/18 09:39:25;;;;;;;15.15;10.07;;;;;;;;;;5024291;28;20091;-79
2023/08/18 09:41:51;;;;;;;13.00;9.52;;;;;;;;;;5039080;28;20041;-79
2023/08/18 09:44:20;;;;;;;12.05;8.45;;;;;;;;;;5039472;28;20186;-79
2023/08/18 09:46:48;;;;;;;12.35;7.82;;;;;;;;;;5031048;28;20353;-77
2023/08/18 09:49:17;;;;;;;15.07;9.27;;;;;;;;;;5038198;28;20040;-78
2023/08/18 09:51:47;;;;;;;17.40;10.40;;;;;;;;;;5022947;28;20029;-76
2023/08/18 09:54:13;;;;;;;13.15;10.73;;;;;;;;;;5031696;28;20418;-77
2023/08/18 09:56:42;;;;;;;12.20;10.30;;;;;;;;;;5024346;28;20178;-80
2023/08/18 09:59:21;;;;;;;16.42;9.85;;;;;;;;;;5016888;28;20033;-76
2023/08/18 10:01:49;;;;;;;12.43;9.10;;;;;;;;;;5026479;28;20100;-76
2023/08/18 10:04:20;;;;;;;12.70;9.10;;;;;;;;;;5026603;28;20486;-78
2023/08/18 10:06:47;;;;;;;9.73;8.15;;;;;;;;;;5025049;28;20057;-75
2023/08/18 10:09:14;;;;;;;9.63;8.02;;;;;;;;;;5023267;28;20037;-77
2023/08/18 10:11:40;;;;;;;10.73;7.85;;;;;;;;;;5023613;28;20032;-79
2023/08/18 10:14:06;;;;;;;11.90;8.27;;;;;;;;;;5021995;28;20033;-78
2023/08/18 10:16:36;;;;;;;10.68;7.95;;;;;;;;;;5022205;28;20041;-77
2023/08/18 10:19:02;;;;;;;10.52;8.45;;;;;;;;;;5022050;28;20030;-76
2023/08/18 10:21:28;;;;;;;11.57;7.45;;;;;;;;;;5022553;28;20045;-79
2023/08/18 10:23:57;;;;;;;11.20;7.93;;;;;;;;;;5022556;28;20053;-78
2023/08/18 10:26:24;;;;;;;9.07;7.65;;;;;;;;;;5038602;28;20033;-76
2023/08/18 10:28:51;;;;;;;12.38;8.15;;;;;;;;;;5023173;28;20044;-78
2023/08/18 10:31:17;;;;;;;11.38;6.95;;;;;;;;;;5022904;28;20026;-78
2023/08/18 10:33:49;;;;;;;9.57;7.93;;;;;;;;;;5021459;28;20032;-76
2023/08/18 10:36:26;;;;;;;7.90;6.70;;;;;;;;;;5023252;28;20112;-77
2023/08/18 10:38:54;;;;;;;8.63;7.07;;;;;;;;;;5038615;28;20034;-75
2023/08/18 10:41:27;;;;;;;11.70;7.03;;;;;;;;;;5023582;28;20040;-76
2023/08/18 10:43:57;;;;;;;11.73;7.13;;;;;;;;;;5037843;28;21550;-78
2023/08/18 10:46:33;;;;;;;9.60;6.45;;;;;;;;;;5022883;28;20332;-78
2023/08/18 10:48:59;;;;;;;7.57;5.85;;;;;;;;;;5023069;28;20057;-79
2023/08/18 10:51:28;;;;;;;7.53;6.30;;;;;;;;;;5022459;28;20033;-77
2023/08/18 10:53:56;;;;;;;7.90;6.30;;;;;;;;;;5022532;28;20029;-79
2023/08/18 10:56:22;;;;;;;9.50;6.60;;;;;;;;;;5026192;28;20357;-76
2023/08/18 10:58:48;;;;;;;10.70;6.55;;;;;;;;;;5025868;28;20723;-79
2023/08/18 11:01:15;;;;;;;7.15;5.68;;;;;;;;;;5025788;28;20041;-79
2023/08/18 11:03:41;;;;;;;8.02;5.47;;;;;;;;;;5025722;28;20034;-78
2023/08/18 11:06:07;;;;;;;7.72;6.07;;;;;;;;;;5025805;28;20975;-78
2023/08/18 11:08:35;;;;;;;11.10;6.25;;;;;;;;;;5041408;28;20063;-78
2023/08/18 11:11:01;;;;;;;6.63;5.93;;;;;;;;;;5037172;28;20033;-77
2023/08/18 11:13:28;;;;;;;7.70;6.00;;;;;;;;;;5024560;28;20350;-79
2023/08/18 11:15:55;;;;;;;10.15;6.03;;;;;;;;;;5029739;28;20029;-79
2023/08/18 11:18:21;;;;;;;7.72;6.00;;;;;;;;;;5040903;28;20060;-79
2023/08/18 11:20:54;;;;;;;8.57;6.18;;;;;;;;;;5026601;28;20053;-75
2023/08/18 11:23:20;;;;;;;11.30;6.88;;;;;;;;;;5035219;28;20034;-77
2023/08/18 11:25:49;;;;;;;8.75;5.80;;;;;;;;;;5033052;28;20029;-79
2023/08/18 11:28:20;;;;;;;9.68;6.93;;;;;;;;;;5041502;28;20025;-77
2023/08/18 11:30:46;;;;;;;10.82;7.05;;;;;;;;;;5025021;28;20034;-77
2023/08/18 11:33:15;;;;;;;8.02;6.93;;;;;;;;;;5024220;28;20025;-79
2023/08/18 11:35:41;;;;;;;8.13;5.97;;;;;;;;;;5040885;28;20533;-76
2023/08/18 11:38:08;;;;;;;5.65;5.07;;;;;;;;;;5025512;28;20029;-79
2023/08/18 11:40:40;;;;;;;6.38;5.57;;;;;;;;;;5023689;28;20040;-80
2023/08/18 11:43:06;;;;;;;;;;;;;;;;;;5025442;28;20033;-78
2023/08/18 11:45:32;;;;;;;7.43;6.20;;;;;;;;;;5032787;28;19964;-77
2023/08/18 11:48:01;;;;;;;8.70;6.00;;;;;;;;;;5040109;28;20120;-77
2023/08/18 11:50:31;;;;;;;7.75;5.75;;;;;;;;;;5024851;28;20034;-78
2023/08/18 11:52:57;;;;;;;6.88;5.63;;;;;;;;;;5041034;28;20026;-77
2023/08/18 11:55:36;;;;;;;8.95;5.70;;;;;;;;;;5025034;28;20112;-77
2023/08/18 11:58:05;;;;;;;10.57;5.93;;;;;;;;;;5024797;28;20156;-80
2023/08/18 12:00:36;;;;;;;9.23;5.97;;;;;;;;;;5041365;28;20076;-79
2023/08/18 12:03:03;;;;;;;8.80;6.43;;;;;;;;;;5025851;28;20470;-77
2023/08/18 12:05:29;;;;;;;6.93;5.65;;;;;;;;;;5022805;28;20124;-80
2023/08/18 12:07:57;;;;;;;9.95;5.88;;;;;;;;;;5023858;28;20386;-77
2023/08/18 12:10:23;;;;;;;11.43;5.45;;;;;;;;;;5039523;28;20029;-77
2023/08/18 12:12:57;;;;;;;8.65;6.07;;;;;;;;;;5031373;28;20079;-75
2023/08/18 12:15:26;;;;;;;5.97;5.22;;;;;;;;;;5024581;28;20029;-79
2023/08/18 12:17:53;;;;;;;7.70;5.30;;;;;;;;;;5039705;28;20026;-75
2023/08/18 12:20:23;;;;;;;8.02;5.65;;;;;;;;;;5024194;28;20061;-78
2023/08/18 12:22:49;;;;;;;6.43;5.50;;;;;;;;;;5025175;28;20603;-79
2023/08/18 12:25:19;;;;;;;6.70;5.82;;;;;;;;;;5025726;28;20040;-80
2023/08/18 12:27:48;;;;;;;11.10;5.78;;;;;;;;;;5025464;28;20112;-79
2023/08/18 12:30:18;;;;;;;6.75;5.75;;;;;;;;;;5024607;28;20052;-76
2023/08/18 12:32:45;;;;;;;13.90;6.90;;;;;;;;;;5040869;28;20033;-78
2023/08/18 12:35:11;;;;;;;7.28;6.10;;;;;;;;;;5024454;28;20107;-79
2023/08/18 12:37:37;;;;;;;7.68;5.80;;;;;;;;;;5024255;28;20025;-78
2023/08/18 12:40:10;;;;;;;6.82;5.90;;;;;;;;;;5023080;28;20033;-79
2023/08/18 12:42:36;;;;;;;6.22;5.35;;;;;;;;;;5039741;28;20037;-77
2023/08/18 12:45:02;;;;;;;7.60;5.82;;;;;;;;;;5031806;28;20128;-78
2023/08/18 12:47:30;;;;;;;7.28;5.18;;;;;;;;;;5039840;28;21701;-79
2023/08/18 12:49:56;;;;;;;12.75;5.63;;;;;;;;;;5024107;28;20104;-78
2023/08/18 12:52:22;;;;;;;6.95;6.03;;;;;;;;;;5023866;28;20156;-78
2023/08/18 12:54:49;;;;;;;9.23;6.47;;;;;;;;;;5023375;28;20044;-79
2023/08/18 12:57:15;;;;;;;6.78;5.65;;;;;;;;;;5039868;28;20080;-77
2023/08/18 12:59:41;;;;;;;8.85;5.78;;;;;;;;;;5023089;28;20038;-79
2023/08/18 13:02:09;;;;;;;7.78;5.22;;;;;;;;;;5030994;28;20395;-80
2023/08/18 13:04:35;;;;;;;6.88;4.65;;;;;;;;;;5025433;28;20037;-78
2023/08/18 13:07:02;;;;;;;8.07;4.95;;;;;;;;;;5039702;28;20021;-79
2023/08/18 13:09:30;;;;;;;8.13;5.50;;;;;;;;;;5041938;28;20041;-74
2023/08/18 13:11:57;;;;;;;7.05;5.15;;;;;;;;;;5041506;28;20029;-79
2023/08/18 13:14:23;;;;;;;5.43;4.70;;;;;;;;;;5023652;28;20017;-80
2023/08/18 13:16:52;;;;;;;11.25;6.25;;;;;;;;;;5030712;28;20541;-78
2023/08/18 13:19:19;;;;;;;7.70;4.85;;;;;;;;;;5023426;28;20041;-77
2023/08/18 13:21:47;;;;;;;9.18;4.78;;;;;;;;;;5022536;28;20030;-76
2023/08/18 13:24:13;;;;;;;5.90;4.68;;;;;;;;;;5023016;28;20053;-78
2023/08/18 13:26:39;;;;;;;13.25;5.65;;;;;;;;;;5023089;28;20044;-76
2023/08/18 13:29:06;;;;;;;10.18;5.03;;;;;;;;;;5023035;28;20044;-79
2023/08/18 13:31:32;;;;;;;7.43;5.18;;;;;;;;;;5022870;28;20602;-79
2023/08/18 13:33:58;;;;;;;7.18;4.72;;;;;;;;;;5022603;28;20038;-78
2023/08/18 13:36:26;;;;;;;6.05;4.63;;;;;;;;;;5022573;28;20033;-78
2023/08/18 13:38:55;;;;;;;5.80;4.50;;;;;;;;;;5030622;28;20033;-77
2023/08/18 13:41:21;;;;;;;6.72;4.85;;;;;;;;;;5021930;28;20025;-79
2023/08/18 13:43:47;;;;;;;5.50;4.22;;;;;;;;;;5023091;28;20449;-77
2023/08/18 13:46:15;;;;;;;8.18;4.80;;;;;;;;;;5023760;28;20041;-80
2023/08/18 13:48:41;;;;;;;8.60;5.25;;;;;;;;;;5022967;28;20037;-75
2023/08/18 13:51:07;;;;;;;7.72;5.07;;;;;;;;;;5029914;28;20033;-77
2023/08/18 13:53:35;;;;;;;6.47;4.15;;;;;;;;;;5037896;28;20029;-80
2023/08/18 13:56:05;;;;;;;6.25;4.22;;;;;;;;;;5021965;28;20890;-78
2023/08/18 13:58:33;;;;;;;5.55;4.95;;;;;;;;;;5022201;28;20029;-76
2023/08/18 14:01:03;;;;;;;8.18;5.35;;;;;;;;;;5030357;28;20045;-77
2023/08/18 14:03:30;;;;;;;6.68;5.05;;;;;;;;;;5022253;28;20025;-77
2023/08/18 14:05:58;;;;;;;7.90;5.43;;;;;;;;;;5038224;28;20037;-77
2023/08/18 14:08:26;;;;;;;7.32;4.72;;;;;;;;;;5022261;28;20560;-77
2023/08/18 14:10:52;;;;;;;6.97;5.22;;;;;;;;;;5038111;28;20041;-79
2023/08/18 14:13:18;;;;;;;9.90;5.25;;;;;;;;;;5030710;28;20021;-77
2023/08/18 14:15:47;;;;;;;7.18;5.05;;;;;;;;;;5022545;28;20026;-78
2023/08/18 14:18:15;;;;;;;5.15;4.30;;;;;;;;;;5022125;28;20029;-79
2023/08/18 14:20:42;;;;;;;7.95;4.78;;;;;;;;;;5021965;28;20112;-80
2023/08/18 14:23:13;;;;;;;8.35;4.63;;;;;;;;;;5020347;28;20029;-79
2023/08/18 14:25:41;;;;;;;5.47;3.90;;;;;;;;;;5021991;28;20041;-75